テルアビブ / ベン・グリオン の空港の天気 - METARとTAF

ベン・グリオン国際空港(テルアビブ) ( LLBG / TLV ) - イスラエル ロード / テルアビブ
飛行場実況気象(Metar)
観測時間07/29 04:20 IDT (07/29 01:20 UTC)
風向・風速南 5m/s
視程10km以上
天気現象
全天の4割程度の雲 雲底高度 670m
気温26℃
湿度89%
気圧1004hPa
METARLLBG 290120Z 19009KT 9999 SCT022 26/24 Q1004 NOSIG
過去の天気等 Google飛行場航空写真 Wunderground天気予報

過去48時間のMETAR

飛行場予報(TAF)
発表時間: 7/29 02:22 IDT (7/28 23:22 UTC)
予報対象時間: 29日3時 IDT ~ 30日3時 IDT
風向・風速南 3m/s
視程10km以上
全天の4割程度の雲 雲底高度 550m
29日3時 IDT ~ 29日9時 IDT に一時的に
風向・風速不定 2m/s
全天の8割程度の雲 雲底高度 490m
29日9時 IDT ~ 29日12時 IDT に徐々に
風向・風速西 5m/s
少しの雲 雲底高度 760m
29日18時 IDT ~ 29日20時 IDT に徐々に
風向・風速不定 2m/s
少しの雲 雲底高度 550m
29日23時 IDT ~ 30日3時 IDT に 確率 40% で一時的に
風向・風速南南東 3m/s
全天の4割程度の雲 雲底高度 490m
TAF LLBG 282322Z 2900/2924 18006KT 9999 SCT018
TEMPO 2900/2906 VRB03KT BKN016
BECMG 2906/2909 27010KT FEW025
BECMG 2915/2917 VRB03KT FEW018
PROB40 TEMPO 2920/2924 16005KT SCT016 TX32/2911Z TN26/2903Z